Molly Grace — VHEZ — position and weather

sailwx.info

Track history (hours):
 
Tides and Currents Weather Stations Pressure Air Temp Water Temp Dewpoint Dewpoint Depression Visibility Wind Speed Wind Dir Waves Ship Positions

Molly Grace

Last reported at 2017-Oct-11 00:00 UTC. Time now 2017-Nov-18 04:45 UTC.
Position S 33°52' E 151°18'.
Warning: this ship's position is 38 days out of date.

Length 29 m; draft 3.5 m.

Type: Other ship. MMSI: 503678200.

Date/timePositionNaut miles runAvg speedWind from/ knotsBaromVisibWave heightAir tempDewpointWater temp
2017-Oct-11 00:00S 33°52' E 151°18'2 3.9
2017-Oct-10 23:30S 33°50' E 151°17'1 1.9
2017-Oct-10 22:58S 33°51' E 151°16'4 5.8
2017-Oct-10 22:16S 33°51' E 151°11'  
2017-Oct-05 05:34S 33°47' E 151°20'1 8.4
2017-Oct-05 05:30S 33°46' E 151°21'5 9.0
2017-Oct-05 05:00S 33°42' E 151°23'4 8.9
2017-Oct-05 04:30S 33°38' E 151°25'4 8.7
2017-Oct-05 04:00S 33°34' E 151°28'8 8.7
2017-Oct-05 03:08S 33°28' E 151°32'1 8.8
2017-Oct-05 02:59S 33°26' E 151°33'31 8.1
2017-Oct-04 23:08S 32°58' E 151°48'1 7.5
2017-Oct-04 23:01S 32°57' E 151°49'2 4.0
2017-Oct-04 22:31S 32°55' E 151°49'2 3.2
2017-Oct-04 22:00S 32°55' E 151°47'2 3.3
2017-Oct-04 21:30S 32°54' E 151°47'0 0.8
2017-Oct-04 21:00S 32°53' E 151°47'0 0.0
2017-Oct-04 20:30S 32°53' E 151°47'0 0.0
2017-Oct-04 20:00S 32°53' E 151°47'0 0.0
2017-Oct-04 19:31S 32°53' E 151°47'0 0.0
2017-Oct-04 19:01S 32°53' E 151°47'0 0.0
2017-Oct-04 18:31S 32°53' E 151°47'0 0.0
2017-Oct-04 18:01S 32°53' E 151°47'0 0.0
2017-Oct-04 17:30S 32°53' E 151°47'0 0.0
2017-Oct-04 17:01S 32°53' E 151°47'0 0.0
2017-Oct-04 16:30S 32°53' E 151°47'0 0.0
2017-Oct-04 16:01S 32°53' E 151°47'0 0.0
2017-Oct-04 15:30S 32°53' E 151°47'0 0.0
2017-Oct-04 15:00S 32°53' E 151°47'0 0.0
2017-Oct-04 14:31S 32°53' E 151°47'0 0.0
2017-Oct-04 14:00S 32°53' E 151°47'0 0.0
2017-Oct-04 13:30S 32°53' E 151°47'0 0.0
2017-Oct-04 13:00S 32°53' E 151°47'0 0.0
2017-Oct-04 12:30S 32°53' E 151°47'0 0.0
2017-Oct-04 12:00S 32°53' E 151°47'0 0.0
2017-Oct-04 11:30S 32°53' E 151°47'0 0.0
2017-Oct-04 11:00S 32°53' E 151°47'0 0.0
2017-Oct-04 10:31S 32°53' E 151°47'0 0.0
2017-Oct-04 10:00S 32°53' E 151°47'0 0.0
2017-Oct-04 09:30S 32°53' E 151°47'0 0.0
2017-Oct-04 09:01S 32°53' E 151°47'0 0.0
2017-Oct-04 08:31S 32°53' E 151°47'0 0.0
2017-Oct-04 08:00S 32°53' E 151°47'0 0.0
2017-Oct-04 07:30S 32°53' E 151°47'0 0.0
2017-Oct-04 07:00S 32°53' E 151°47'0 0.0
2017-Oct-04 06:31S 32°53' E 151°47'0 0.0
2017-Oct-04 06:00S 32°53' E 151°47'0 0.0
2017-Oct-04 05:30S 32°53' E 151°47'0 0.0
2017-Oct-04 05:00S 32°53' E 151°47'0 0.0
2017-Oct-04 04:31S 32°53' E 151°47'0 0.0
2017-Oct-04 04:00S 32°53' E 151°47'0 0.0
2017-Oct-04 03:31S 32°53' E 151°47'0 0.0
2017-Oct-04 03:01S 32°53' E 151°47'0 0.0
2017-Oct-04 02:30S 32°53' E 151°47'0 0.0
2017-Oct-04 02:00S 32°53' E 151°47'0 0.0
2017-Oct-04 01:31S 32°53' E 151°47'0 0.0
2017-Oct-04 01:00S 32°53' E 151°47'0 0.0
2017-Oct-04 00:30S 32°53' E 151°47'0 0.0
2017-Oct-04 00:00S 32°53' E 151°47'0 0.0
2017-Oct-03 23:30S 32°53' E 151°47'0 0.0
2017-Oct-03 23:01S 32°53' E 151°47'0 0.0
2017-Oct-03 22:31S 32°53' E 151°47'0 0.0
2017-Oct-03 22:00S 32°53' E 151°47'0 0.0
2017-Oct-03 21:30S 32°53' E 151°47'0 0.0
2017-Oct-03 21:00S 32°53' E 151°47'0 0.0
2017-Oct-03 20:30S 32°53' E 151°47'0 0.0
2017-Oct-03 20:00S 32°53' E 151°47'2 4.1
2017-Oct-03 19:30S 32°55' E 151°47'0 0.2
2017-Oct-03 19:00S 32°55' E 151°47'2 3.9
2017-Oct-03 18:30S 32°55' E 151°49'1 2.5
2017-Oct-03 18:00S 32°55' E 151°50'3 6.6
2017-Oct-03 17:30S 32°58' E 151°53'22 7.7
2017-Oct-03 14:42S 33°18' E 151°43'5 7.5
2017-Oct-03 13:59S 33°22' E 151°40'11 7.4
2017-Oct-03 12:33S 33°32' E 151°34'0 7.4
2017-Oct-03 12:30S 33°32' E 151°34'4 7.0
2017-Oct-03 11:53S 33°36' E 151°31'3 6.7
2017-Oct-03 11:30S 33°38' E 151°30'4 6.8
2017-Oct-03 10:58S 33°42' E 151°28'3 7.0
2017-Oct-03 10:29S 33°45' E 151°26'3 6.6
2017-Oct-03 10:00S 33°47' E 151°24'4 6.5
2017-Oct-03 09:28S 33°51' E 151°22'  
Track history (hours):
 
Tides and Currents Weather Stations Pressure Air Temp Water Temp Dewpoint Dewpoint Depression Visibility Wind Speed Wind Dir Waves Ship Positions

Molly Grace

Last reported at 2017-Oct-11 00:00 UTC. Time now 2017-Nov-18 04:45 UTC.
Position S 33°52' E 151°18'.
Warning: this ship's position is 38 days out of date.

Length 29 m; draft 3.5 m.

Type: Other ship. MMSI: 503678200.

Date/timePositionNaut miles runAvg speedWind from/ knotsBaromVisibWave heightAir tempDewpointWater temp
2017-Oct-11 00:00S 33°52' E 151°18'2 3.9
2017-Oct-10 23:30S 33°50' E 151°17'1 1.9
2017-Oct-10 22:58S 33°51' E 151°16'4 5.8
2017-Oct-10 22:16S 33°51' E 151°11'  
2017-Oct-05 05:34S 33°47' E 151°20'1 8.4
2017-Oct-05 05:30S 33°46' E 151°21'5 9.0
2017-Oct-05 05:00S 33°42' E 151°23'4 8.9
2017-Oct-05 04:30S 33°38' E 151°25'4 8.7
2017-Oct-05 04:00S 33°34' E 151°28'8 8.7
2017-Oct-05 03:08S 33°28' E 151°32'1 8.8
2017-Oct-05 02:59S 33°26' E 151°33'31 8.1
2017-Oct-04 23:08S 32°58' E 151°48'1 7.5
2017-Oct-04 23:01S 32°57' E 151°49'2 4.0
2017-Oct-04 22:31S 32°55' E 151°49'2 3.2
2017-Oct-04 22:00S 32°55' E 151°47'2 3.3
2017-Oct-04 21:30S 32°54' E 151°47'0 0.8
2017-Oct-04 21:00S 32°53' E 151°47'0 0.0
2017-Oct-04 20:30S 32°53' E 151°47'0 0.0
2017-Oct-04 20:00S 32°53' E 151°47'0 0.0
2017-Oct-04 19:31S 32°53' E 151°47'0 0.0
2017-Oct-04 19:01S 32°53' E 151°47'0 0.0
2017-Oct-04 18:31S 32°53' E 151°47'0 0.0
2017-Oct-04 18:01S 32°53' E 151°47'0 0.0
2017-Oct-04 17:30S 32°53' E 151°47'0 0.0
2017-Oct-04 17:01S 32°53' E 151°47'0 0.0
2017-Oct-04 16:30S 32°53' E 151°47'0 0.0
2017-Oct-04 16:01S 32°53' E 151°47'0 0.0
2017-Oct-04 15:30S 32°53' E 151°47'0 0.0
2017-Oct-04 15:00S 32°53' E 151°47'0 0.0
2017-Oct-04 14:31S 32°53' E 151°47'0 0.0
2017-Oct-04 14:00S 32°53' E 151°47'0 0.0
2017-Oct-04 13:30S 32°53' E 151°47'0 0.0
2017-Oct-04 13:00S 32°53' E 151°47'0 0.0
2017-Oct-04 12:30S 32°53' E 151°47'0 0.0
2017-Oct-04 12:00S 32°53' E 151°47'0 0.0
2017-Oct-04 11:30S 32°53' E 151°47'0 0.0
2017-Oct-04 11:00S 32°53' E 151°47'0 0.0
2017-Oct-04 10:31S 32°53' E 151°47'0 0.0
2017-Oct-04 10:00S 32°53' E 151°47'0 0.0
2017-Oct-04 09:30S 32°53' E 151°47'0 0.0
2017-Oct-04 09:01S 32°53' E 151°47'0 0.0
2017-Oct-04 08:31S 32°53' E 151°47'0 0.0
2017-Oct-04 08:00S 32°53' E 151°47'0 0.0
2017-Oct-04 07:30S 32°53' E 151°47'0 0.0
2017-Oct-04 07:00S 32°53' E 151°47'0 0.0
2017-Oct-04 06:31S 32°53' E 151°47'0 0.0
2017-Oct-04 06:00S 32°53' E 151°47'0 0.0
2017-Oct-04 05:30S 32°53' E 151°47'0 0.0
2017-Oct-04 05:00S 32°53' E 151°47'0 0.0
2017-Oct-04 04:31S 32°53' E 151°47'0 0.0
2017-Oct-04 04:00S 32°53' E 151°47'0 0.0
2017-Oct-04 03:31S 32°53' E 151°47'0 0.0
2017-Oct-04 03:01S 32°53' E 151°47'0 0.0
2017-Oct-04 02:30S 32°53' E 151°47'0 0.0
2017-Oct-04 02:00S 32°53' E 151°47'0 0.0
2017-Oct-04 01:31S 32°53' E 151°47'0 0.0
2017-Oct-04 01:00S 32°53' E 151°47'0 0.0
2017-Oct-04 00:30S 32°53' E 151°47'0 0.0
2017-Oct-04 00:00S 32°53' E 151°47'0 0.0
2017-Oct-03 23:30S 32°53' E 151°47'0 0.0
2017-Oct-03 23:01S 32°53' E 151°47'0 0.0
2017-Oct-03 22:31S 32°53' E 151°47'0 0.0
2017-Oct-03 22:00S 32°53' E 151°47'0 0.0
2017-Oct-03 21:30S 32°53' E 151°47'0 0.0
2017-Oct-03 21:00S 32°53' E 151°47'0 0.0
2017-Oct-03 20:30S 32°53' E 151°47'0 0.0
2017-Oct-03 20:00S 32°53' E 151°47'2 4.1
2017-Oct-03 19:30S 32°55' E 151°47'0 0.2
2017-Oct-03 19:00S 32°55' E 151°47'2 3.9
2017-Oct-03 18:30S 32°55' E 151°49'1 2.5
2017-Oct-03 18:00S 32°55' E 151°50'3 6.6
2017-Oct-03 17:30S 32°58' E 151°53'22 7.7
2017-Oct-03 14:42S 33°18' E 151°43'5 7.5
2017-Oct-03 13:59S 33°22' E 151°40'11 7.4
2017-Oct-03 12:33S 33°32' E 151°34'0 7.4
2017-Oct-03 12:30S 33°32' E 151°34'4 7.0
2017-Oct-03 11:53S 33°36' E 151°31'3 6.7
2017-Oct-03 11:30S 33°38' E 151°30'4 6.8
2017-Oct-03 10:58S 33°42' E 151°28'3 7.0
2017-Oct-03 10:29S 33°45' E 151°26'3 6.6
2017-Oct-03 10:00S 33°47' E 151°24'4 6.5
2017-Oct-03 09:28S 33°51' E 151°22'  

Dump ship's entire track history